Vel'Sk, Russia
Current Conditions -  °F | °C
As of 10:30 AM on Wednesday 26 Nov 2014 (Local Time) from ULWC Reporting Station
Haze Haze  
Wind Chill: 15°   Ceiling: 100
Heat Index: 23°   Visibility: 2mi
Dew Point: 21°   Wind: 7mph
Humidity: 93%   Direction: 280°W
Pressure: 30.36"   Gusts: NA
Location:  61.08°N, 42.07°E
Report Text: ULWC 260730Z 28003MPS 3300 BR OVC001 M05/M06 Q1028 TEMPO 1000BR RMK QBB050 QFE761/1015 SC057
Loading
Personal Weather Stations






























Interactive Weather Map New forecast layout! Learn more

10-Day Weather Forecast

Advertisements
Track Severe Weather on mobile